ENBN/BNN METAR and TAF weather

Enter ICAO airport designator
Station Type Date Time Source
ENBN METAR 2018/12/13 15:20 UTC NOAA

ENBN 131520Z VRB02KT CAVOK M03/M06 Q1031


Station Type Date Time Source
ENBN Decoded METAR 2018/12/13 15:20 UTC NOAA

Bronnoysund / Bronnoy, Norway (ENBN) 65-28N 012-13E 9M
Dec 13, 2018 - 10:20 AM EST / 2018.12.13 1520 UTC
Wind: Variable at 2 MPH (2 KT):0
Visibility: greater than 7 mile(s):0
Temperature: 26 F (-3 C)
Dew Point: 21 F (-6 C)
Relative Humidity: 79%
Pressure (altimeter): 30.45 in. Hg (1031 hPa)
ob: ENBN 131520Z VRB02KT CAVOK M03/M06 Q1031
cycle: 15

Station Type Date Time Source
ENBN TAF 2011/03/27 18:12 UTC NOAA

TAF TAF ENBN 261700Z 2618/2718 CNL


Example: see airport list